createdAt,value
2022-08-03T00:04:22.449Z,17.30
2022-08-03T00:09:35.408Z,17.29
2022-08-03T00:14:32.287Z,17.16
2022-08-03T00:19:28.765Z,17.16
2022-08-03T00:24:25.114Z,17.10
2022-08-03T00:29:21.417Z,17.12
2022-08-03T00:34:17.727Z,17.19
2022-08-03T00:39:29.994Z,17.07
2022-08-03T00:44:26.328Z,17.15
2022-08-03T00:49:23.328Z,17.19
2022-08-03T00:54:19.968Z,17.18
2022-08-03T00:59:16.484Z,17.19
2022-08-03T01:04:12.813Z,17.16
2022-08-03T01:09:50.479Z,17.19
2022-08-03T01:15:08.726Z,17.18
2022-08-03T01:20:11.788Z,17.04
2022-08-03T01:25:39.231Z,16.99
2022-08-03T01:30:38.032Z,17.00
2022-08-03T01:35:38.829Z,16.97
2022-08-03T01:40:38.234Z,16.81
2022-08-03T01:45:37.193Z,16.78
2022-08-03T01:50:35.163Z,16.82
2022-08-03T01:55:33.975Z,16.79
2022-08-03T02:00:32.799Z,16.65
2022-08-03T02:05:32.028Z,16.66
2022-08-03T02:10:34.559Z,16.60
2022-08-03T02:15:33.954Z,16.60
2022-08-03T02:20:33.001Z,16.62
2022-08-03T02:25:30.334Z,16.54
2022-08-03T02:30:33.164Z,16.50
2022-08-03T02:35:32.715Z,16.45
2022-08-03T02:40:31.423Z,16.35
2022-08-03T02:45:29.517Z,16.36
2022-08-03T02:50:27.504Z,16.34
2022-08-03T02:55:26.512Z,16.29
2022-08-03T03:00:28.403Z,16.17
2022-08-03T03:05:55.047Z,16.15
2022-08-03T03:10:43.779Z,16.14
2022-08-03T03:15:40.805Z,16.02
2022-08-03T03:20:39.018Z,15.96
2022-08-03T03:25:35.859Z,15.96
2022-08-03T03:30:33.742Z,15.78
2022-08-03T03:35:30.291Z,15.84
2022-08-03T03:40:27.278Z,15.86
2022-08-03T03:45:24.206Z,15.89
2022-08-03T03:50:22.225Z,15.98
2022-08-03T03:55:18.873Z,15.97
2022-08-03T04:00:17.721Z,15.84
2022-08-03T04:05:33.120Z,15.89
2022-08-03T04:10:52.509Z,15.86
2022-08-03T04:15:50.483Z,15.85
2022-08-03T04:20:50.066Z,15.90
2022-08-03T04:25:49.099Z,15.97
2022-08-03T04:30:48.870Z,16.04
2022-08-03T04:36:00.935Z,16.14
2022-08-03T04:40:59.757Z,16.21
2022-08-03T04:45:57.582Z,16.27
2022-08-03T04:50:54.329Z,16.45
2022-08-03T04:55:50.710Z,16.66
2022-08-03T05:00:50.988Z,16.71
2022-08-03T05:05:49.761Z,16.86
2022-08-03T05:10:47.431Z,17.03
2022-08-03T05:15:43.785Z,17.33
2022-08-03T05:20:40.127Z,17.55
2022-08-03T05:25:36.457Z,17.92
2022-08-03T05:30:34.371Z,18.25
2022-08-03T05:35:55.963Z,18.48
2022-08-03T05:40:57.241Z,18.73
2022-08-03T05:46:12.455Z,18.93
2022-08-03T05:51:11.526Z,19.35
2022-08-03T05:56:14.295Z,19.82
2022-08-03T06:01:12.067Z,20.44
2022-08-03T06:06:08.565Z,20.82
2022-08-03T06:11:04.918Z,21.07
2022-08-03T06:16:01.582Z,21.19
2022-08-03T06:20:58.042Z,21.42
2022-08-03T06:26:10.460Z,21.51
2022-08-03T06:31:09.637Z,21.79
2022-08-03T06:36:06.158Z,22.44
2022-08-03T06:41:02.612Z,22.99
2022-08-03T06:45:58.951Z,23.21
2022-08-03T06:50:55.283Z,23.23
2022-08-03T06:55:54.940Z,23.22
2022-08-03T07:00:51.684Z,23.35
2022-08-03T07:05:48.199Z,23.73
2022-08-03T07:10:45.480Z,24.08
2022-08-03T07:15:55.249Z,24.07
2022-08-03T07:20:52.788Z,24.49
2022-08-03T07:25:49.163Z,24.79
2022-08-03T07:30:45.496Z,24.77
2022-08-03T07:35:41.941Z,25.39
2022-08-03T07:40:40.067Z,25.82
2022-08-03T07:45:39.610Z,26.02
2022-08-03T07:50:35.961Z,26.00
2022-08-03T07:55:32.363Z,26.40
2022-08-03T08:00:29.049Z,26.46
2022-08-03T08:05:26.466Z,26.84
2022-08-03T08:10:22.872Z,26.87
2022-08-03T08:15:19.545Z,27.01
2022-08-03T08:20:17.598Z,26.76
2022-08-03T08:25:26.155Z,27.29
2022-08-03T08:30:23.957Z,27.44
2022-08-03T08:35:20.394Z,27.64
2022-08-03T08:40:16.800Z,27.60
2022-08-03T08:45:15.492Z,28.03
2022-08-03T08:50:21.587Z,27.70
2022-08-03T08:55:24.944Z,28.43
2022-08-03T09:00:21.588Z,28.83
2022-08-03T09:05:24.719Z,27.89
2022-08-03T09:10:27.941Z,27.00
2022-08-03T09:15:26.217Z,27.64
2022-08-03T09:20:23.935Z,28.02
2022-08-03T09:25:26.230Z,28.91
2022-08-03T09:30:34.226Z,28.70
2022-08-03T09:40:48.374Z,29.30
2022-08-03T09:45:46.439Z,28.93
2022-08-03T09:50:58.430Z,29.31
2022-08-03T09:56:36.404Z,29.41
2022-08-03T10:01:33.443Z,29.14
2022-08-03T10:06:29.912Z,29.33
2022-08-03T10:11:36.201Z,29.68
2022-08-03T10:16:39.668Z,29.28
2022-08-03T10:21:38.233Z,29.31
2022-08-03T10:26:36.679Z,28.65
2022-08-03T10:31:57.236Z,29.22
2022-08-03T10:36:58.632Z,28.98
2022-08-03T10:41:58.626Z,29.02
2022-08-03T10:46:56.917Z,29.01
2022-08-03T10:51:53.547Z,28.64
2022-08-03T10:57:14.282Z,29.47
2022-08-03T11:02:19.642Z,29.84
2022-08-03T11:07:16.465Z,30.15
2022-08-03T11:12:30.713Z,31.01
2022-08-03T11:17:28.187Z,30.06
2022-08-03T11:22:25.105Z,28.85
2022-08-03T11:27:23.715Z,28.90
2022-08-03T11:32:38.523Z,29.31
2022-08-03T11:37:35.536Z,29.24
2022-08-03T11:42:35.169Z,29.21
2022-08-03T11:47:31.584Z,30.41
2022-08-03T11:52:34.186Z,30.26
2022-08-03T11:59:16.588Z,29.76
2022-08-03T12:02:59.990Z,29.75
2022-08-03T12:08:03.863Z,29.95
2022-08-03T12:13:05.880Z,30.20
2022-08-03T12:18:24.363Z,30.77
2022-08-03T12:23:20.816Z,30.19
2022-08-03T12:28:36.433Z,29.99
2022-08-03T12:34:19.973Z,30.24
2022-08-03T12:39:16.414Z,31.19
2022-08-03T12:44:14.950Z,30.95
2022-08-03T12:49:18.658Z,30.44
2022-08-03T12:54:24.356Z,30.97
2022-08-03T12:59:32.202Z,31.62
2022-08-03T13:04:34.492Z,32.15
2022-08-03T13:09:45.293Z,30.72
2022-08-03T13:14:43.414Z,30.55
2022-08-03T13:19:40.632Z,30.43
2022-08-03T13:24:36.976Z,31.24
2022-08-03T13:29:34.401Z,30.94
2022-08-03T13:34:30.882Z,31.27
2022-08-03T13:39:32.580Z,31.17
2022-08-03T13:44:29.998Z,31.08
2022-08-03T13:49:27.288Z,31.02
2022-08-03T13:54:23.725Z,31.58
2022-08-03T13:59:23.815Z,31.50
2022-08-03T14:04:21.914Z,31.10
2022-08-03T14:09:18.823Z,31.66
2022-08-03T14:14:15.517Z,32.07
2022-08-03T14:19:12.096Z,31.58
2022-08-03T14:24:08.789Z,31.40
2022-08-03T14:29:05.655Z,31.69
2022-08-03T14:34:02.084Z,31.81
2022-08-03T14:39:01.382Z,31.68
2022-08-03T14:44:01.394Z,32.31
2022-08-03T14:50:29.392Z,31.95
2022-08-03T14:54:15.743Z,32.45
2022-08-03T14:59:14.824Z,31.99
2022-08-03T15:04:11.140Z,31.95
2022-08-03T15:09:21.639Z,32.25
2022-08-03T15:14:20.043Z,32.25
2022-08-03T15:20:01.297Z,31.59
2022-08-03T15:24:41.738Z,31.86
2022-08-03T15:30:07.537Z,30.88
2022-08-03T15:34:55.329Z,31.12
2022-08-03T15:40:00.069Z,31.11
2022-08-03T15:44:56.950Z,31.43
2022-08-03T15:49:53.396Z,31.43
2022-08-03T15:54:49.682Z,31.27
2022-08-03T15:59:46.085Z,31.51
2022-08-03T16:04:42.416Z,31.25
2022-08-03T16:09:42.113Z,31.15
2022-08-03T16:14:51.447Z,31.27
2022-08-03T16:19:48.971Z,31.22
2022-08-03T16:24:46.612Z,30.96
2022-08-03T16:29:43.027Z,31.61
2022-08-03T16:34:39.448Z,31.29
2022-08-03T16:39:36.246Z,31.55
2022-08-03T16:44:32.800Z,31.69
2022-08-03T16:49:55.582Z,32.79
2022-08-03T16:54:50.603Z,33.17
2022-08-03T16:59:49.675Z,36.63
2022-08-03T17:04:47.414Z,40.70
2022-08-03T17:09:44.739Z,41.17
2022-08-03T17:14:43.062Z,40.32
2022-08-03T17:19:41.041Z,40.63
2022-08-03T17:24:50.818Z,38.18
2022-08-03T17:29:51.934Z,39.95
2022-08-03T17:34:48.902Z,36.93
2022-08-03T17:39:58.609Z,37.70
2022-08-03T17:44:56.558Z,39.48
2022-08-03T17:49:52.897Z,39.67
2022-08-03T17:55:55.170Z,35.71
2022-08-03T18:00:52.125Z,37.83
2022-08-03T18:06:11.406Z,38.58
2022-08-03T18:11:14.881Z,38.24
2022-08-03T18:16:15.276Z,38.12
2022-08-03T18:21:16.781Z,37.79
2022-08-03T18:26:14.896Z,37.08
2022-08-03T18:36:33.297Z,34.44
2022-08-03T18:41:34.598Z,32.52
2022-08-03T18:46:49.111Z,31.06
2022-08-03T18:51:50.028Z,29.96
2022-08-03T18:56:56.200Z,29.26
2022-08-03T19:01:59.708Z,28.62
2022-08-03T19:07:09.193Z,27.78
2022-08-03T19:12:28.111Z,27.11
2022-08-03T19:17:34.885Z,26.54
2022-08-03T19:22:33.263Z,26.13
2022-08-03T19:27:33.797Z,25.79
2022-08-03T19:32:31.906Z,25.41
2022-08-03T19:37:39.765Z,25.17
2022-08-03T19:42:44.134Z,24.98
2022-08-03T19:47:45.672Z,24.72
2022-08-03T19:52:45.001Z,24.48
2022-08-03T19:57:44.041Z,24.23
2022-08-03T20:02:42.053Z,24.03
2022-08-03T20:07:40.899Z,23.67
2022-08-03T20:12:45.978Z,23.53
2022-08-03T20:17:54.701Z,23.41
2022-08-03T20:22:57.603Z,23.22
2022-08-03T20:28:07.177Z,23.07
2022-08-03T20:33:09.905Z,22.93
2022-08-03T20:38:06.853Z,22.79
2022-08-03T20:43:04.562Z,22.59
2022-08-03T20:48:01.753Z,22.35
2022-08-03T20:52:58.690Z,22.30
2022-08-03T20:57:59.797Z,22.20
2022-08-03T21:02:56.659Z,22.03
2022-08-03T21:08:06.207Z,21.89
2022-08-03T21:13:05.735Z,36.33
2022-08-03T21:13:26.114Z,21.82
2022-08-03T21:18:23.471Z,21.69
2022-08-03T21:23:39.934Z,21.66
2022-08-03T21:28:38.668Z,21.63
2022-08-03T21:33:35.677Z,21.64
2022-08-03T21:38:32.841Z,21.38
2022-08-03T21:43:29.978Z,21.21
2022-08-03T21:48:28.202Z,21.12
2022-08-03T21:54:00.405Z,21.09
2022-08-03T21:58:54.363Z,21.01
2022-08-03T22:03:54.420Z,21.04
2022-08-03T22:08:52.715Z,21.13
2022-08-03T22:13:50.505Z,21.61
2022-08-03T22:18:46.915Z,22.29
2022-08-03T22:23:50.562Z,22.75
2022-08-03T22:28:47.489Z,23.03
2022-08-03T22:33:45.321Z,23.26
2022-08-03T22:38:42.359Z,23.61
2022-08-03T22:43:39.104Z,23.70
2022-08-03T22:48:40.790Z,23.67
2022-08-03T22:53:39.117Z,23.60
2022-08-03T22:58:35.449Z,23.54
2022-08-03T23:03:59.631Z,23.46
2022-08-03T23:08:53.574Z,23.31
2022-08-03T23:13:54.036Z,23.24
2022-08-03T23:18:51.928Z,23.18
2022-08-03T23:23:48.538Z,23.13
2022-08-03T23:28:48.393Z,23.06
2022-08-03T23:33:44.986Z,23.07
2022-08-03T23:38:41.726Z,23.00
2022-08-03T23:43:50.738Z,22.97
2022-08-03T23:48:49.964Z,23.02
2022-08-03T23:53:55.835Z,22.84
2022-08-03T23:59:11.125Z,22.77
